createdAt,value
2019-06-07T00:02:08.214Z,9.10
2019-06-07T00:04:35.865Z,9.10
2019-06-07T00:07:03.108Z,9.00
2019-06-07T00:09:30.354Z,8.80
2019-06-07T00:11:57.579Z,8.70
2019-06-07T00:14:24.821Z,8.60
2019-06-07T00:16:51.939Z,8.60
2019-06-07T00:19:19.276Z,8.60
2019-06-07T00:22:15.826Z,8.50
2019-06-07T00:24:16.833Z,8.40
2019-06-07T00:26:57.655Z,8.40
2019-06-07T00:29:16.775Z,8.30
2019-06-07T00:31:43.706Z,8.30
2019-06-07T00:34:11.999Z,8.30
2019-06-07T00:36:40.124Z,8.30
2019-06-07T00:39:07.681Z,8.30
2019-06-07T00:41:34.908Z,8.20
2019-06-07T00:44:02.165Z,8.20
2019-06-07T00:46:29.382Z,8.40
2019-06-07T00:48:56.549Z,8.40
2019-06-07T00:51:24.224Z,8.50
2019-06-07T00:53:51.890Z,8.50
2019-06-07T00:56:21.754Z,8.50
2019-06-07T00:59:09.705Z,8.50
2019-06-07T01:01:20.369Z,8.40
2019-06-07T01:03:46.493Z,8.40
2019-06-07T01:06:14.993Z,8.40
2019-06-07T01:08:42.380Z,8.40
2019-06-07T01:11:09.505Z,8.50
2019-06-07T01:13:36.633Z,8.50
2019-06-07T01:16:03.761Z,8.40
2019-06-07T01:18:39.231Z,8.30
2019-06-07T01:21:00.241Z,8.20
2019-06-07T01:24:04.728Z,8.20
2019-06-07T01:25:57.192Z,8.10
2019-06-07T01:28:26.941Z,8.00
2019-06-07T01:30:53.598Z,8.00
2019-06-07T01:33:21.489Z,8.10
2019-06-07T01:35:49.853Z,8.30
2019-06-07T01:38:21.195Z,8.30
2019-06-07T01:40:46.743Z,8.30
2019-06-07T01:43:13.960Z,8.10
2019-06-07T01:45:41.178Z,8.00
2019-06-07T01:48:08.394Z,8.00
2019-06-07T01:50:35.525Z,8.00
2019-06-07T01:53:03.021Z,8.00
2019-06-07T01:55:32.818Z,8.00
2019-06-07T01:57:59.554Z,8.00
2019-06-07T02:00:31.897Z,8.10
2019-06-07T02:02:56.202Z,8.10
2019-06-07T02:05:25.753Z,8.10
2019-06-07T02:07:52.544Z,8.00
2019-06-07T02:10:24.058Z,8.00
2019-06-07T02:12:49.822Z,7.90
2019-06-07T02:15:22.322Z,7.80
2019-06-07T02:17:48.218Z,7.80
2019-06-07T02:20:15.440Z,7.90
2019-06-07T02:22:42.829Z,7.90
2019-06-07T02:25:37.084Z,8.00
2019-06-07T02:27:39.506Z,7.90
2019-06-07T02:30:36.955Z,7.70
2019-06-07T02:32:37.563Z,7.70
2019-06-07T02:35:05.514Z,7.90
2019-06-07T02:37:36.503Z,8.00
2019-06-07T02:40:02.251Z,8.00
2019-06-07T02:42:36.626Z,8.10
2019-06-07T02:44:59.258Z,7.90
2019-06-07T02:47:28.708Z,7.80
2019-06-07T02:49:55.625Z,7.80
2019-06-07T02:52:27.165Z,7.60
2019-06-07T02:54:51.883Z,7.60
2019-06-07T02:57:19.191Z,7.70
2019-06-07T03:00:07.087Z,7.80
2019-06-07T03:02:15.534Z,7.70
2019-06-07T03:04:44.925Z,7.70
2019-06-07T03:07:11.861Z,7.70
2019-06-07T03:09:40.879Z,7.80
2019-06-07T03:12:10.344Z,7.70
2019-06-07T03:14:39.052Z,7.70
2019-06-07T03:17:19.132Z,7.80
2019-06-07T03:19:47.649Z,7.70
2019-06-07T03:22:14.874Z,7.60
2019-06-07T03:24:44.245Z,7.60
2019-06-07T03:29:41.653Z,7.60
2019-06-07T03:32:09.190Z,7.70
2019-06-07T03:34:41.303Z,7.70
2019-06-07T03:37:05.464Z,7.70
2019-06-07T03:39:33.735Z,7.80
2019-06-07T03:42:06.444Z,8.00
2019-06-07T03:44:33.013Z,8.10
2019-06-07T03:47:00.825Z,8.20
2019-06-07T03:49:30.661Z,8.20
2019-06-07T03:51:57.217Z,8.30
2019-06-07T03:54:24.485Z,8.30
2019-06-07T03:56:51.837Z,8.30
2019-06-07T03:59:19.408Z,8.40
2019-06-07T04:01:46.531Z,8.60
2019-06-07T04:04:14.112Z,8.70
2019-06-07T04:06:42.607Z,8.70
2019-06-07T04:09:10.242Z,8.60
2019-06-07T04:11:39.407Z,8.60
2019-06-07T04:14:06.441Z,8.60
2019-06-07T04:16:37.984Z,8.70
2019-06-07T04:19:02.806Z,8.80
2019-06-07T04:21:31.407Z,8.80
2019-06-07T04:23:59.401Z,8.90
2019-06-07T04:26:26.614Z,9.00
2019-06-07T04:29:31.840Z,9.10
2019-06-07T04:31:23.085Z,9.20
2019-06-07T04:33:50.333Z,9.10
2019-06-07T04:36:38.998Z,9.20
2019-06-07T04:38:48.985Z,9.30
2019-06-07T04:41:19.082Z,9.40
2019-06-07T04:43:46.841Z,9.40
2019-06-07T04:46:16.569Z,9.50
2019-06-07T04:48:45.133Z,9.60
2019-06-07T04:51:13.629Z,9.60
2019-06-07T04:53:43.253Z,9.70
2019-06-07T04:56:10.669Z,9.70
2019-06-07T04:58:38.315Z,9.70
2019-06-07T05:01:24.347Z,9.70
2019-06-07T05:03:40.903Z,9.80
2019-06-07T05:06:05.581Z,10.00
2019-06-07T05:08:33.919Z,10.00
2019-06-07T05:11:02.349Z,10.00
2019-06-07T05:13:31.493Z,10.10
2019-06-07T05:15:59.129Z,10.20
2019-06-07T05:18:26.446Z,10.40
2019-06-07T05:20:53.990Z,10.50
2019-06-07T05:24:00.289Z,10.50
2019-06-07T05:25:51.414Z,10.80
2019-06-07T05:28:18.629Z,11.10
2019-06-07T05:33:15.754Z,11.80
2019-06-07T05:35:43.490Z,12.20
2019-06-07T05:38:11.069Z,12.60
2019-06-07T05:40:42.851Z,12.90
2019-06-07T05:43:22.569Z,12.90
2019-06-07T05:45:50.110Z,12.60
2019-06-07T05:48:17.780Z,12.50
2019-06-07T05:50:55.998Z,12.40
2019-06-07T05:53:14.225Z,12.70
2019-06-07T05:55:44.051Z,13.20
2019-06-07T05:58:10.661Z,13.20
2019-06-07T06:00:38.898Z,13.30
2019-06-07T06:03:07.108Z,13.50
2019-06-07T06:05:41.331Z,13.60
2019-06-07T06:08:03.572Z,13.90
2019-06-07T06:10:31.546Z,14.10
2019-06-07T06:12:58.769Z,14.30
2019-06-07T06:15:41.676Z,14.20
2019-06-07T06:17:54.944Z,14.10
2019-06-07T06:20:23.598Z,13.90
2019-06-07T06:22:51.294Z,14.00
2019-06-07T06:25:34.754Z,13.60
2019-06-07T06:28:11.446Z,13.70
2019-06-07T06:30:17.693Z,14.10
2019-06-07T06:32:52.999Z,14.30
2019-06-07T06:35:14.949Z,14.40
2019-06-07T06:37:46.521Z,14.70
2019-06-07T06:40:12.097Z,14.70
2019-06-07T06:42:39.845Z,14.70
2019-06-07T06:45:09.862Z,14.90
2019-06-07T06:47:38.275Z,14.90
2019-06-07T06:50:06.729Z,14.80
2019-06-07T06:52:33.948Z,14.50
2019-06-07T06:55:01.419Z,14.80
2019-06-07T06:57:28.833Z,14.90
2019-06-07T06:59:56.092Z,15.30
2019-06-07T07:02:23.343Z,15.50
2019-06-07T07:04:53.532Z,16.10
2019-06-07T07:07:20.861Z,15.80
2019-06-07T07:09:52.324Z,15.90
2019-06-07T07:12:17.618Z,15.90
2019-06-07T07:14:47.342Z,16.00
2019-06-07T07:17:13.890Z,16.10
2019-06-07T07:19:42.582Z,16.40
2019-06-07T07:22:11.011Z,16.30
2019-06-07T07:24:38.232Z,16.80
2019-06-07T07:27:05.761Z,16.60
2019-06-07T07:29:32.993Z,16.40
2019-06-07T07:32:00.318Z,16.30
2019-06-07T07:36:59.544Z,16.20
2019-06-07T07:39:28.056Z,16.50
2019-06-07T07:42:17.743Z,16.70
2019-06-07T07:49:36.979Z,16.90
2019-06-07T07:52:06.263Z,17.00
2019-06-07T07:54:46.688Z,16.90
2019-06-07T07:57:14.660Z,17.00
2019-06-07T08:00:00.458Z,17.30
2019-06-07T08:02:12.370Z,17.20
2019-06-07T08:05:13.712Z,17.30
2019-06-07T08:07:09.201Z,17.50
2019-06-07T08:09:36.803Z,17.60
2019-06-07T08:12:04.440Z,17.60
2019-06-07T08:14:32.574Z,17.90
2019-06-07T08:17:01.077Z,18.10
2019-06-07T08:19:29.478Z,18.20
2019-06-07T08:22:00.100Z,18.20
2019-06-07T08:24:26.833Z,18.50
2019-06-07T08:29:45.093Z,18.90
2019-06-07T08:32:07.745Z,19.40
2019-06-07T08:34:56.799Z,20.00
2019-06-07T08:38:13.319Z,20.30
2019-06-07T08:39:57.569Z,20.90
2019-06-07T08:42:37.065Z,21.00
2019-06-07T08:45:01.578Z,21.10
2019-06-07T08:47:25.194Z,21.80
2019-06-07T08:49:56.740Z,21.60
2019-06-07T08:52:22.508Z,21.70
2019-06-07T08:54:50.478Z,21.20
2019-06-07T08:57:21.724Z,21.00
2019-06-07T08:59:48.120Z,20.90
2019-06-07T09:02:23.607Z,20.80
2019-06-07T09:04:45.640Z,20.70
2019-06-07T09:07:19.462Z,20.40
2019-06-07T09:09:46.002Z,20.20
2019-06-07T09:12:13.788Z,20.10
2019-06-07T09:14:59.027Z,20.20
2019-06-07T09:17:12.581Z,20.50
2019-06-07T09:19:40.734Z,20.40
2019-06-07T09:22:11.241Z,20.40
2019-06-07T09:24:37.829Z,20.30
2019-06-07T09:27:07.789Z,20.50
2019-06-07T09:29:36.966Z,20.70
2019-06-07T09:32:10.929Z,20.20
2019-06-07T09:34:35.018Z,20.20
2019-06-07T09:37:54.811Z,20.40
2019-06-07T09:39:37.390Z,20.30
2019-06-07T09:42:10.042Z,20.40
2019-06-07T09:44:34.785Z,20.60
2019-06-07T09:47:23.749Z,20.60
2019-06-07T09:49:33.199Z,20.60
2019-06-07T09:52:03.614Z,20.80
2019-06-07T09:55:03.798Z,20.80
2019-06-07T09:57:04.086Z,20.70
2019-06-07T09:59:29.990Z,20.60
2019-06-07T10:01:59.547Z,20.80
2019-06-07T10:04:31.175Z,21.10
2019-06-07T10:07:03.313Z,21.30
2019-06-07T10:10:09.406Z,21.60
2019-06-07T10:11:56.267Z,21.40
2019-06-07T10:14:23.578Z,21.40
2019-06-07T10:16:51.403Z,21.40
2019-06-07T10:19:19.776Z,21.70
2019-06-07T10:21:47.668Z,21.70
2019-06-07T10:24:16.603Z,21.80
2019-06-07T10:26:45.446Z,22.30
2019-06-07T10:29:14.396Z,22.90
2019-06-07T10:31:42.616Z,23.10
2019-06-07T10:34:10.869Z,23.10
2019-06-07T10:36:39.373Z,23.20
2019-06-07T10:39:07.323Z,23.40
2019-06-07T10:41:35.129Z,23.40
2019-06-07T10:44:03.322Z,23.80
2019-06-07T10:46:30.795Z,24.50
2019-06-07T10:48:58.898Z,25.10
2019-06-07T10:51:28.625Z,25.20
2019-06-07T10:53:56.705Z,25.80
2019-06-07T10:56:23.982Z,26.00
2019-06-07T10:58:51.620Z,26.80
2019-06-07T11:01:19.633Z,27.50
2019-06-07T11:03:46.948Z,27.90
2019-06-07T11:06:15.325Z,28.20
2019-06-07T11:08:43.149Z,28.10
2019-06-07T11:11:12.288Z,27.70
2019-06-07T11:13:40.243Z,28.10
2019-06-07T11:16:08.798Z,27.80
2019-06-07T11:18:36.562Z,28.30
2019-06-07T11:21:06.121Z,28.30
2019-06-07T11:23:37.997Z,28.20
2019-06-07T11:26:06.577Z,28.80
2019-06-07T11:28:34.208Z,28.80
2019-06-07T11:31:02.337Z,29.00
2019-06-07T11:33:29.653Z,28.30
2019-06-07T11:35:56.981Z,29.20
2019-06-07T11:38:24.285Z,28.70
2019-06-07T11:40:51.519Z,28.00
2019-06-07T11:43:19.099Z,28.70
2019-06-07T11:45:46.523Z,29.60
2019-06-07T11:48:15.369Z,28.80
2019-06-07T11:50:42.798Z,29.50
2019-06-07T11:53:10.743Z,29.30
2019-06-07T11:55:38.162Z,29.40
2019-06-07T11:58:09.740Z,29.70
2019-06-07T12:00:34.598Z,30.00
2019-06-07T12:03:01.857Z,29.90
2019-06-07T12:05:29.446Z,29.60
2019-06-07T12:07:57.225Z,29.60
2019-06-07T12:10:24.716Z,29.90
2019-06-07T12:12:51.940Z,29.90
2019-06-07T12:15:19.391Z,29.80
2019-06-07T12:17:47.138Z,29.50
2019-06-07T12:20:17.300Z,29.60
2019-06-07T12:22:44.941Z,29.60
2019-06-07T12:25:12.930Z,30.00
2019-06-07T12:27:41.619Z,30.00
2019-06-07T12:30:11.215Z,29.70
2019-06-07T12:32:38.003Z,29.50
2019-06-07T12:35:07.020Z,28.80
2019-06-07T12:37:43.719Z,29.10
2019-06-07T12:40:04.476Z,28.30
2019-06-07T12:42:31.786Z,28.70
2019-06-07T12:44:59.009Z,29.00
2019-06-07T12:47:26.252Z,28.60
2019-06-07T12:49:53.383Z,28.10
2019-06-07T12:52:22.800Z,28.10
2019-06-07T12:54:49.763Z,27.10
2019-06-07T12:57:17.941Z,27.30
2019-06-07T12:59:45.332Z,27.10
2019-06-07T13:02:14.124Z,26.80
2019-06-07T13:04:41.644Z,26.60
2019-06-07T13:07:08.975Z,26.10
2019-06-07T13:09:36.396Z,26.10
2019-06-07T13:12:03.721Z,26.30
2019-06-07T13:14:31.239Z,26.40
2019-06-07T13:16:58.490Z,26.40
2019-06-07T13:19:25.727Z,26.30
2019-06-07T13:21:52.979Z,26.30
2019-06-07T13:24:20.945Z,26.00
2019-06-07T13:26:48.653Z,25.60
2019-06-07T13:29:16.481Z,25.50
2019-06-07T13:31:44.273Z,25.50
2019-06-07T13:34:11.403Z,25.80
2019-06-07T13:36:38.634Z,26.00
2019-06-07T13:39:06.683Z,26.30
2019-06-07T13:41:42.459Z,26.20
2019-06-07T13:44:03.238Z,25.70
2019-06-07T13:46:30.560Z,25.80
2019-06-07T13:48:57.805Z,25.70
2019-06-07T13:51:26.947Z,25.80
2019-06-07T13:53:54.961Z,26.00
2019-06-07T13:56:22.291Z,25.80
2019-06-07T13:58:51.911Z,25.90
2019-06-07T14:01:20.327Z,25.40
2019-06-07T14:03:47.614Z,25.30
2019-06-07T14:06:15.116Z,25.10
2019-06-07T14:08:42.370Z,24.80
2019-06-07T14:11:09.598Z,24.80
2019-06-07T14:13:36.830Z,25.20
2019-06-07T14:16:04.224Z,25.40
2019-06-07T14:18:31.578Z,25.60
2019-06-07T14:20:59.105Z,25.60
2019-06-07T14:23:42.399Z,25.40
2019-06-07T14:25:55.579Z,25.20
2019-06-07T14:28:26.431Z,25.10
2019-06-07T14:30:51.975Z,24.90
2019-06-07T14:33:23.040Z,24.70
2019-06-07T14:35:48.730Z,24.50
2019-06-07T14:38:16.580Z,24.30
2019-06-07T14:40:45.418Z,24.10
2019-06-07T14:43:13.634Z,23.90
2019-06-07T14:45:40.898Z,23.80
2019-06-07T14:48:08.779Z,23.70
2019-06-07T14:50:36.395Z,23.60
2019-06-07T14:53:03.789Z,23.50
2019-06-07T14:55:31.251Z,23.30
2019-06-07T14:57:58.689Z,23.40
2019-06-07T15:00:38.893Z,23.40
2019-06-07T15:03:06.573Z,23.50
2019-06-07T15:05:35.650Z,23.50
2019-06-07T15:08:03.635Z,23.50
2019-06-07T15:10:31.914Z,23.40
2019-06-07T15:13:00.500Z,23.40
2019-06-07T15:15:28.348Z,23.50
2019-06-07T15:17:56.021Z,23.60
2019-06-07T15:20:24.140Z,23.60
2019-06-07T15:22:51.915Z,23.60
2019-06-07T15:25:20.591Z,23.60
2019-06-07T15:27:48.631Z,23.60
2019-06-07T15:30:16.794Z,23.50
2019-06-07T15:32:45.018Z,23.50
2019-06-07T15:35:12.618Z,23.40
2019-06-07T15:37:39.888Z,23.40
2019-06-07T15:40:08.940Z,23.40
2019-06-07T15:42:48.066Z,23.50
2019-06-07T15:45:06.159Z,23.40
2019-06-07T15:47:33.822Z,23.40
2019-06-07T15:50:01.247Z,23.40
2019-06-07T15:52:28.775Z,22.80
2019-06-07T15:55:02.483Z,22.20
2019-06-07T15:57:31.071Z,21.60
2019-06-07T15:59:59.074Z,20.90
2019-06-07T16:02:26.887Z,20.50
2019-06-07T16:04:56.088Z,20.40
2019-06-07T16:07:28.036Z,20.30
2019-06-07T16:09:56.011Z,20.10
2019-06-07T16:12:24.725Z,20.10
2019-06-07T16:15:00.300Z,20.00
2019-06-07T16:17:27.922Z,19.90
2019-06-07T16:19:55.293Z,19.70
2019-06-07T16:22:22.590Z,19.30
2019-06-07T16:24:49.897Z,19.10
2019-06-07T16:27:17.350Z,18.90
2019-06-07T16:29:44.843Z,18.60
2019-06-07T16:32:12.243Z,18.50
2019-06-07T16:34:41.527Z,18.40
2019-06-07T16:37:09.380Z,18.30
2019-06-07T16:39:36.706Z,18.00
2019-06-07T16:42:03.957Z,18.00
2019-06-07T16:44:31.299Z,17.80
2019-06-07T16:46:59.691Z,17.30
2019-06-07T16:49:27.201Z,16.90
2019-06-07T16:51:54.474Z,16.60
2019-06-07T16:54:21.804Z,16.50
2019-06-07T16:56:51.232Z,16.10
2019-06-07T16:59:18.092Z,15.50
2019-06-07T17:01:45.393Z,15.00
2019-06-07T17:04:12.961Z,14.70
2019-06-07T17:06:41.591Z,14.40
2019-06-07T17:09:09.406Z,14.30
2019-06-07T17:11:38.137Z,14.30
2019-06-07T17:14:05.516Z,14.20
2019-06-07T17:16:33.211Z,14.10
2019-06-07T17:19:02.529Z,14.20
2019-06-07T17:21:30.612Z,14.20
2019-06-07T17:23:57.900Z,14.20
2019-06-07T17:26:25.130Z,14.20
2019-06-07T17:28:52.832Z,14.10
2019-06-07T17:31:20.397Z,14.20
2019-06-07T17:33:48.133Z,14.20
2019-06-07T17:36:15.571Z,14.10
2019-06-07T17:38:44.440Z,14.10
2019-06-07T17:41:11.821Z,14.00
2019-06-07T17:43:49.492Z,13.90
2019-06-07T17:46:08.080Z,13.80
2019-06-07T17:48:35.315Z,13.80
2019-06-07T17:51:03.416Z,13.70
2019-06-07T17:53:31.543Z,13.80
2019-06-07T17:55:58.765Z,13.90
2019-06-07T17:58:25.998Z,13.90
2019-06-07T18:00:53.429Z,13.90
2019-06-07T18:03:21.164Z,13.90
2019-06-07T18:05:49.289Z,13.80
2019-06-07T18:08:16.665Z,13.80
2019-06-07T18:10:43.920Z,13.70
2019-06-07T18:13:11.083Z,13.70
2019-06-07T18:15:40.504Z,13.40
2019-06-07T18:18:08.041Z,13.30
2019-06-07T18:20:35.352Z,13.20
2019-06-07T18:23:02.812Z,13.10
2019-06-07T18:25:30.049Z,12.90
2019-06-07T18:27:57.265Z,12.90
2019-06-07T18:30:24.497Z,12.80
2019-06-07T18:32:52.960Z,12.70
2019-06-07T18:35:20.632Z,12.60
2019-06-07T18:37:48.940Z,12.50
2019-06-07T18:40:16.346Z,12.50
2019-06-07T18:42:43.907Z,12.50
2019-06-07T18:45:11.129Z,12.50
2019-06-07T18:47:38.386Z,12.50
2019-06-07T18:50:05.617Z,12.70
2019-06-07T18:52:35.090Z,12.70
2019-06-07T18:55:02.323Z,12.70
2019-06-07T18:57:29.578Z,12.70
2019-06-07T18:59:58.651Z,12.80
2019-06-07T19:02:26.550Z,12.70
2019-06-07T19:04:54.244Z,12.70
2019-06-07T19:07:23.353Z,12.60
2019-06-07T19:09:50.651Z,12.40
2019-06-07T19:12:18.018Z,12.40
2019-06-07T19:14:45.241Z,12.50
2019-06-07T19:17:12.804Z,12.40
2019-06-07T19:19:40.028Z,12.40
2019-06-07T19:22:07.255Z,12.40
2019-06-07T19:24:34.526Z,12.30
2019-06-07T19:27:01.750Z,12.30
2019-06-07T19:29:28.992Z,12.20
2019-06-07T19:31:57.020Z,12.20
2019-06-07T19:34:24.594Z,12.10
2019-06-07T19:36:51.841Z,12.10
2019-06-07T19:39:19.081Z,12.10
2019-06-07T19:41:46.306Z,12.00
2019-06-07T19:44:13.553Z,12.00
2019-06-07T19:46:41.073Z,12.00
2019-06-07T19:49:08.333Z,11.90
2019-06-07T19:51:35.549Z,12.00
2019-06-07T19:54:03.707Z,12.10
2019-06-07T19:56:31.218Z,12.00
2019-06-07T19:58:59.752Z,12.00
2019-06-07T20:01:27.538Z,11.90
2019-06-07T20:03:55.933Z,11.90
2019-06-07T20:06:23.337Z,11.90
2019-06-07T20:08:50.704Z,12.00
2019-06-07T20:11:18.037Z,11.90
2019-06-07T20:13:45.693Z,12.00
2019-06-07T20:16:12.904Z,12.20
2019-06-07T20:18:40.221Z,12.10
2019-06-07T20:21:09.093Z,12.10
2019-06-07T20:23:36.919Z,12.00
2019-06-07T20:26:04.773Z,12.00
2019-06-07T20:28:32.295Z,12.00
2019-06-07T20:31:01.838Z,12.10
2019-06-07T20:33:29.330Z,12.20
2019-06-07T20:35:56.845Z,12.10
2019-06-07T20:38:24.085Z,12.20
2019-06-07T20:40:51.373Z,12.10
2019-06-07T20:43:18.525Z,12.10
2019-06-07T20:45:46.077Z,12.10
2019-06-07T20:48:13.320Z,12.20
2019-06-07T20:50:40.550Z,12.10
2019-06-07T20:53:09.034Z,12.10
2019-06-07T20:55:36.417Z,12.20
2019-06-07T20:58:04.165Z,12.10
2019-06-07T21:00:32.793Z,12.10
2019-06-07T21:03:01.166Z,12.10
2019-06-07T21:05:28.633Z,12.10
2019-06-07T21:07:55.863Z,12.10
2019-06-07T21:10:22.993Z,12.20
2019-06-07T21:12:50.133Z,12.20
2019-06-07T21:15:17.363Z,12.30
2019-06-07T21:17:44.614Z,12.30
2019-06-07T21:20:14.399Z,12.40
2019-06-07T21:22:42.206Z,12.30
2019-06-07T21:25:10.169Z,12.20
2019-06-07T21:27:39.066Z,12.10
2019-06-07T21:30:07.297Z,11.90
2019-06-07T21:32:34.898Z,12.00
2019-06-07T21:35:03.768Z,12.00
2019-06-07T21:37:31.232Z,12.10
2019-06-07T21:39:58.447Z,12.10
2019-06-07T21:42:25.699Z,12.00
2019-06-07T21:44:52.926Z,12.20
2019-06-07T21:47:20.883Z,12.20
2019-06-07T21:49:48.340Z,12.00
2019-06-07T21:52:16.396Z,11.90
2019-06-07T21:54:43.953Z,11.70
2019-06-07T21:57:11.204Z,11.80
2019-06-07T21:59:38.509Z,11.70
2019-06-07T22:02:07.452Z,11.80
2019-06-07T22:04:34.765Z,11.70
2019-06-07T22:07:03.200Z,11.90
2019-06-07T22:09:30.649Z,12.00
2019-06-07T22:11:57.915Z,12.10
2019-06-07T22:14:25.057Z,12.20
2019-06-07T22:16:52.377Z,12.20
2019-06-07T22:19:19.859Z,12.30
2019-06-07T22:22:01.797Z,12.50
2019-06-07T22:24:16.921Z,12.60
2019-06-07T22:26:44.151Z,12.60
2019-06-07T22:29:12.388Z,12.60
2019-06-07T22:31:39.705Z,12.70
2019-06-07T22:34:06.939Z,12.80
2019-06-07T22:36:34.256Z,12.80
2019-06-07T22:39:01.757Z,12.80
2019-06-07T22:41:28.877Z,12.80
2019-06-07T22:43:56.121Z,12.90
2019-06-07T22:46:36.445Z,13.10
2019-06-07T22:48:52.469Z,13.00
2019-06-07T22:51:19.592Z,13.00
2019-06-07T22:53:46.712Z,13.00
2019-06-07T22:56:33.540Z,13.10
2019-06-07T22:59:00.785Z,13.20
2019-06-07T23:01:28.101Z,13.10
2019-06-07T23:03:55.358Z,13.10
2019-06-07T23:06:22.486Z,13.10
2019-06-07T23:08:49.712Z,13.20
2019-06-07T23:11:17.326Z,13.10
2019-06-07T23:13:45.094Z,13.10
2019-06-07T23:16:13.508Z,13.30
2019-06-07T23:18:40.969Z,13.20
2019-06-07T23:21:08.225Z,13.10
2019-06-07T23:23:36.713Z,13.10
2019-06-07T23:26:04.128Z,13.10
2019-06-07T23:28:31.442Z,13.30
2019-06-07T23:30:59.036Z,13.30
2019-06-07T23:33:26.485Z,13.40
2019-06-07T23:35:53.700Z,13.60
2019-06-07T23:38:21.235Z,13.60
2019-06-07T23:40:48.757Z,13.60
2019-06-07T23:43:17.464Z,13.70
2019-06-07T23:45:44.748Z,13.80
2019-06-07T23:48:11.877Z,13.90
2019-06-07T23:50:39.319Z,14.00
2019-06-07T23:53:06.857Z,14.00
2019-06-07T23:55:34.078Z,14.00
2019-06-07T23:58:01.361Z,13.90
